createdAt,value
2023-01-30T00:04:48.876Z,83.90
2023-01-30T00:12:56.873Z,83.40
2023-01-30T00:21:04.079Z,83.60
2023-01-30T00:29:12.235Z,83.50
2023-01-30T00:37:17.613Z,84.10
2023-01-30T00:45:37.983Z,84.30
2023-01-30T00:53:43.335Z,84.50
2023-01-30T01:01:52.189Z,84.40
2023-01-30T01:09:57.617Z,83.70
2023-01-30T01:18:05.986Z,83.40
2023-01-30T01:26:11.524Z,83.00
2023-01-30T01:34:19.519Z,83.90
2023-01-30T01:42:27.376Z,83.00
2023-01-30T01:50:45.098Z,82.90
2023-01-30T01:58:55.745Z,82.90
2023-01-30T02:07:03.762Z,82.40
2023-01-30T02:15:10.579Z,81.80
2023-01-30T02:23:45.965Z,82.20
2023-01-30T02:31:57.376Z,83.00
2023-01-30T02:40:19.208Z,82.20
2023-01-30T02:48:31.493Z,82.40
2023-01-30T02:56:48.717Z,82.00
2023-01-30T03:05:22.930Z,82.50
2023-01-30T03:13:38.024Z,82.70
2023-01-30T03:21:49.635Z,80.80
2023-01-30T03:29:56.288Z,81.80
2023-01-30T03:38:05.062Z,81.40
2023-01-30T03:46:10.519Z,81.50
2023-01-30T03:54:20.033Z,81.00
2023-01-30T04:02:26.449Z,80.40
2023-01-30T04:10:36.023Z,80.60
2023-01-30T04:18:42.317Z,80.80
2023-01-30T04:27:00.292Z,79.80
2023-01-30T04:35:08.069Z,79.40
2023-01-30T04:43:16.236Z,78.00
2023-01-30T04:51:30.389Z,82.70
2023-01-30T04:59:40.979Z,83.20
2023-01-30T05:07:48.929Z,82.00
2023-01-30T05:15:56.980Z,80.60
2023-01-30T05:24:02.443Z,79.80
2023-01-30T05:32:10.519Z,79.00
2023-01-30T05:40:16.894Z,77.70
2023-01-30T05:48:25.649Z,78.50
2023-01-30T05:56:33.360Z,78.00
2023-01-30T06:04:41.400Z,77.60
2023-01-30T06:12:59.002Z,77.40
2023-01-30T06:21:07.859Z,77.20
2023-01-30T06:29:13.288Z,77.80
2023-01-30T06:37:21.347Z,79.00
2023-01-30T06:45:26.658Z,80.20
2023-01-30T06:53:35.429Z,80.10
2023-01-30T07:01:40.886Z,81.10
2023-01-30T07:10:02.175Z,80.30
2023-01-30T07:18:12.077Z,79.80
2023-01-30T07:26:23.067Z,79.80
2023-01-30T07:34:28.486Z,80.10
2023-01-30T07:42:36.482Z,79.80
2023-01-30T07:50:42.105Z,78.90
2023-01-30T07:58:50.211Z,78.30
2023-01-30T08:06:55.606Z,77.30
2023-01-30T08:15:03.699Z,77.50
2023-01-30T08:23:09.140Z,77.80
2023-01-30T08:31:18.410Z,76.80
2023-01-30T08:39:23.843Z,76.50
2023-01-30T08:47:31.906Z,75.00
2023-01-30T08:55:37.667Z,74.80
2023-01-30T09:03:46.012Z,74.80
2023-01-30T09:11:51.459Z,74.30
2023-01-30T09:19:59.731Z,73.00
2023-01-30T09:28:04.991Z,73.60
2023-01-30T09:36:13.518Z,73.70
2023-01-30T09:44:43.995Z,72.70
2023-01-30T09:52:58.047Z,71.60
2023-01-30T10:01:10.628Z,68.60
2023-01-30T10:09:28.591Z,68.80
2023-01-30T10:17:44.931Z,61.20
2023-01-30T10:25:56.739Z,53.00
2023-01-30T10:34:06.345Z,59.50
2023-01-30T10:42:18.211Z,58.20
2023-01-30T10:50:29.676Z,66.60
2023-01-30T10:58:48.159Z,68.40
2023-01-30T11:06:55.287Z,66.60
2023-01-30T11:15:04.710Z,64.80
2023-01-30T11:23:12.326Z,63.30
2023-01-30T11:31:40.852Z,62.40
2023-01-30T11:39:55.371Z,60.60
2023-01-30T11:48:07.875Z,59.70
2023-01-30T11:56:20.663Z,67.70
2023-01-30T12:04:28.892Z,66.10
2023-01-30T12:12:38.019Z,65.30
2023-01-30T12:20:52.686Z,64.60
2023-01-30T12:29:05.016Z,64.50
2023-01-30T12:37:37.150Z,64.70
2023-01-30T12:45:52.210Z,64.30
2023-01-30T12:54:15.923Z,64.40
2023-01-30T13:02:56.163Z,62.90
2023-01-30T13:11:15.097Z,65.40
2023-01-30T13:19:40.470Z,65.10
2023-01-30T13:27:57.041Z,65.80
2023-01-30T13:36:13.299Z,66.70
2023-01-30T13:44:27.768Z,68.00
2023-01-30T13:52:40.841Z,68.40
2023-01-30T14:00:56.400Z,69.30
2023-01-30T14:09:05.189Z,69.60
2023-01-30T14:17:19.906Z,70.80
2023-01-30T14:25:33.584Z,71.20
2023-01-30T14:33:51.636Z,71.20
2023-01-30T14:42:16.808Z,71.20
2023-01-30T14:50:26.635Z,72.60
2023-01-30T14:58:32.101Z,73.20
2023-01-30T15:06:41.551Z,73.60
2023-01-30T15:16:10.096Z,73.80
2023-01-30T15:24:45.714Z,73.90
2023-01-30T15:33:12.751Z,74.90
2023-01-30T15:41:19.366Z,74.80
2023-01-30T15:49:47.623Z,75.00
2023-01-30T15:57:57.322Z,74.50
2023-01-30T16:06:05.740Z,74.30
2023-01-30T16:14:15.731Z,75.10
2023-01-30T16:22:25.660Z,75.10
2023-01-30T16:30:32.934Z,74.80
2023-01-30T16:38:48.362Z,75.10
2023-01-30T16:47:06.014Z,75.40
2023-01-30T16:55:23.705Z,75.20
2023-01-30T17:03:34.283Z,75.40
2023-01-30T17:11:43.397Z,75.00
2023-01-30T17:19:50.937Z,75.00
2023-01-30T17:27:59.733Z,75.20
2023-01-30T17:36:08.509Z,74.90
2023-01-30T17:44:17.553Z,74.60
2023-01-30T17:52:23.008Z,75.50
2023-01-30T18:00:31.295Z,74.90
2023-01-30T18:08:38.563Z,75.40
2023-01-30T18:16:47.821Z,75.10
2023-01-30T18:24:53.217Z,74.40
2023-01-30T18:33:03.572Z,75.30
2023-01-30T18:41:13.012Z,74.30
2023-01-30T18:49:21.668Z,75.00
2023-01-30T18:57:27.073Z,74.90
2023-01-30T19:05:38.197Z,75.00
2023-01-30T19:13:48.649Z,75.20
2023-01-30T19:21:56.720Z,74.50
2023-01-30T19:30:02.139Z,75.80
2023-01-30T19:38:10.108Z,76.20
2023-01-30T19:46:17.927Z,76.80
2023-01-30T19:54:25.934Z,77.60
2023-01-30T20:02:31.427Z,78.00
2023-01-30T20:10:42.431Z,78.60
2023-01-30T20:18:49.097Z,79.00
2023-01-30T20:26:57.252Z,79.80
2023-01-30T20:35:03.541Z,80.00
2023-01-30T20:43:11.743Z,80.20
2023-01-30T20:51:19.117Z,80.50
2023-01-30T20:59:28.779Z,80.80
2023-01-30T21:07:35.936Z,81.10
2023-01-30T21:15:44.053Z,81.30
2023-01-30T21:23:49.542Z,81.30
2023-01-30T21:31:58.771Z,82.10
2023-01-30T21:40:16.721Z,81.30
2023-01-30T21:48:24.714Z,82.00
2023-01-30T21:56:30.191Z,81.90
2023-01-30T22:04:38.843Z,82.50
2023-01-30T22:12:44.160Z,82.40
2023-01-30T22:20:52.798Z,82.40
2023-01-30T22:28:59.067Z,83.90
2023-01-30T22:37:07.041Z,83.40
2023-01-30T22:45:13.606Z,84.40
2023-01-30T22:53:21.646Z,85.30
2023-01-30T23:01:29.106Z,84.20
2023-01-30T23:09:37.169Z,83.20
2023-01-30T23:17:55.343Z,82.80
2023-01-30T23:26:04.620Z,83.20
2023-01-30T23:34:11.533Z,83.00
2023-01-30T23:42:19.492Z,83.40
2023-01-30T23:50:24.873Z,84.00
2023-01-30T23:58:32.980Z,83.90
